Time;durP1;ratioP1;P1;durP2;ratioP2;P2;SDS_P1;SDS_P2;PMS_P1;PMS_P2;Temp;Humidity;BMP_temperature;BMP_pressure;BME280_temperature;BME280_humidity;BME280_pressure;Samples;Min_cycle;Max_cycle;Signal;HPM_P1;HPM_P2
2022/12/14 00:00:44;;;;;;;14.13;7.00;;;;;;;;;;5100972;28;20234;-27
2022/12/14 00:03:11;;;;;;;12.57;8.10;;;;;;;;;;5091747;28;20581;-26
2022/12/14 00:05:38;;;;;;;12.30;6.83;;;;;;;;;;5084976;28;20196;-25
2022/12/14 00:08:06;;;;;;;9.03;5.97;;;;;;;;;;5101590;28;20668;-25
2022/12/14 00:10:34;;;;;;;9.90;6.90;;;;;;;;;;5108213;28;20219;-26
2022/12/14 00:13:02;;;;;;;12.40;7.17;;;;;;;;;;5082383;28;20196;-25
2022/12/14 00:15:29;;;;;;;7.93;5.40;;;;;;;;;;5093822;28;20212;-27
2022/12/14 00:17:56;;;;;;;11.00;6.90;;;;;;;;;;5112812;28;20204;-26
2022/12/14 00:20:24;;;;;;;8.77;6.23;;;;;;;;;;5076878;28;20205;-26
2022/12/14 00:22:51;;;;;;;10.50;7.00;;;;;;;;;;5097275;28;20284;-27
2022/12/14 00:25:18;;;;;;;11.53;7.17;;;;;;;;;;5088080;28;20209;-25
2022/12/14 00:27:47;;;;;;;11.77;6.83;;;;;;;;;;5083531;28;20573;-27
2022/12/14 00:30:15;;;;;;;11.77;7.07;;;;;;;;;;5091627;28;20219;-27
2022/12/14 00:32:42;;;;;;;12.03;7.57;;;;;;;;;;5072317;28;20208;-27
2022/12/14 00:35:10;;;;;;;11.30;6.97;;;;;;;;;;5083424;28;20317;-24
2022/12/14 00:37:37;;;;;;;12.93;7.13;;;;;;;;;;5099564;28;20207;-26
2022/12/14 00:40:05;;;;;;;10.43;6.70;;;;;;;;;;5091965;28;20211;-25
2022/12/14 00:42:32;;;;;;;15.47;7.67;;;;;;;;;;5085790;28;20229;-25
2022/12/14 00:45:01;;;;;;;10.83;7.53;;;;;;;;;;5095199;28;20212;-25
2022/12/14 00:47:28;;;;;;;9.47;6.37;;;;;;;;;;5112548;28;20200;-27
2022/12/14 00:49:55;;;;;;;11.97;7.00;;;;;;;;;;5104122;28;20540;-26
2022/12/14 00:52:23;;;;;;;13.13;7.23;;;;;;;;;;5087513;28;20671;-26
2022/12/14 00:54:50;;;;;;;10.37;6.20;;;;;;;;;;5098980;28;20210;-26
2022/12/14 00:57:17;;;;;;;13.90;7.77;;;;;;;;;;5087836;28;20564;-28
2022/12/14 00:59:44;;;;;;;11.23;6.07;;;;;;;;;;5095263;28;20204;-27
2022/12/14 01:02:12;;;;;;;13.17;7.60;;;;;;;;;;5108178;28;20306;-26
2022/12/14 01:04:40;;;;;;;12.10;6.73;;;;;;;;;;5096045;28;20420;-26
2022/12/14 01:07:07;;;;;;;10.37;6.23;;;;;;;;;;5078520;28;20300;-26
2022/12/14 01:09:34;;;;;;;13.13;7.53;;;;;;;;;;5092677;28;20296;-26
2022/12/14 01:12:01;;;;;;;12.03;8.17;;;;;;;;;;5090502;28;20221;-25
2022/12/14 01:14:28;;;;;;;10.93;7.60;;;;;;;;;;5089803;28;20654;-26
2022/12/14 01:16:55;;;;;;;10.87;7.43;;;;;;;;;;5097631;28;20197;-26
2022/12/14 01:19:24;;;;;;;13.33;7.47;;;;;;;;;;5090497;28;20212;-27
2022/12/14 01:21:52;;;;;;;12.50;7.03;;;;;;;;;;5088042;28;20232;-26
2022/12/14 01:24:19;;;;;;;13.67;9.83;;;;;;;;;;5090477;28;20211;-26
2022/12/14 01:26:46;;;;;;;11.00;7.63;;;;;;;;;;5092486;28;20209;-26
2022/12/14 01:29:13;;;;;;;12.93;8.07;;;;;;;;;;5100169;28;20701;-26
2022/12/14 01:31:42;;;;;;;11.30;7.73;;;;;;;;;;5090859;28;20225;-27
2022/12/14 01:34:09;;;;;;;14.57;8.00;;;;;;;;;;5086204;28;20205;-27
2022/12/14 01:36:38;;;;;;;13.33;8.23;;;;;;;;;;5079232;28;20666;-26
2022/12/14 01:39:08;;;;;;;10.90;7.13;;;;;;;;;;5105498;28;20196;-28
2022/12/14 01:41:37;;;;;;;13.03;8.00;;;;;;;;;;5097661;28;20640;-27
2022/12/14 01:44:05;;;;;;;10.93;7.70;;;;;;;;;;5088009;28;20210;-27
2022/12/14 01:46:35;;;;;;;11.53;7.20;;;;;;;;;;5095394;28;20650;-26
2022/12/14 01:49:06;;;;;;;11.53;7.43;;;;;;;;;;5090541;28;20200;-27
2022/12/14 01:51:33;;;;;;;11.77;7.97;;;;;;;;;;5086858;28;20231;-26
2022/12/14 01:54:03;;;;;;;11.80;7.87;;;;;;;;;;5102551;28;20208;-27
2022/12/14 01:56:30;;;;;;;11.57;6.17;;;;;;;;;;5081850;28;20228;-26
2022/12/14 01:58:59;;;;;;;12.37;6.70;;;;;;;;;;5082809;28;20210;-27
2022/12/14 02:01:26;;;;;;;11.93;6.77;;;;;;;;;;5081951;28;20793;-26
2022/12/14 02:03:54;;;;;;;11.67;7.33;;;;;;;;;;5104445;28;20204;-27
2022/12/14 02:06:23;;;;;;;12.30;8.10;;;;;;;;;;5092146;28;20205;-27
2022/12/14 02:08:51;;;;;;;14.27;8.80;;;;;;;;;;5084481;28;20683;-26
2022/12/14 02:11:23;;;;;;;13.20;7.27;;;;;;;;;;5085146;28;20313;-27
2022/12/14 02:13:50;;;;;;;13.03;7.27;;;;;;;;;;5080282;28;20697;-27
2022/12/14 02:16:17;;;;;;;10.30;6.30;;;;;;;;;;5090320;28;20207;-26
2022/12/14 02:18:44;;;;;;;13.77;8.50;;;;;;;;;;5090529;28;20212;-27
2022/12/14 02:21:19;;;;;;;11.67;7.30;;;;;;;;;;5079851;28;20311;-26
2022/12/14 02:24:05;;;;;;;14.10;7.37;;;;;;;;;;5081729;28;20208;-25
2022/12/14 02:26:43;;;;;;;10.37;6.70;;;;;;;;;;5081263;28;20211;-27
2022/12/14 02:29:29;;;;;;;12.13;7.80;;;;;;;;;;5088579;28;20575;-27
2022/12/14 02:32:03;;;;;;;14.07;8.57;;;;;;;;;;5083083;28;20761;-25
2022/12/14 02:34:37;;;;;;;11.40;6.87;;;;;;;;;;5088950;28;20560;-26
2022/12/14 02:37:09;;;;;;;10.87;6.80;;;;;;;;;;5077444;28;20201;-27
2022/12/14 02:39:41;;;;;;;13.93;8.47;;;;;;;;;;5084753;28;20760;-26
2022/12/14 02:42:09;;;;;;;11.83;7.73;;;;;;;;;;5088849;28;20229;-25
2022/12/14 02:44:40;;;;;;;13.67;7.93;;;;;;;;;;5079329;28;20200;-28
2022/12/14 02:47:12;;;;;;;13.70;8.30;;;;;;;;;;5109978;28;20200;-27
2022/12/14 02:49:45;;;;;;;12.07;7.57;;;;;;;;;;5086024;28;20238;-26
2022/12/14 02:52:14;;;;;;;12.13;7.93;;;;;;;;;;5097916;28;20228;-25
2022/12/14 02:54:45;;;;;;;12.77;8.10;;;;;;;;;;5092353;28;20201;-26
2022/12/14 02:57:14;;;;;;;9.97;5.60;;;;;;;;;;5082762;28;20215;-26
2022/12/14 02:59:42;;;;;;;14.17;8.67;;;;;;;;;;5095423;28;20201;-26
2022/12/14 03:02:11;;;;;;;9.17;5.53;;;;;;;;;;5094405;28;20232;-27
2022/12/14 03:04:44;;;;;;;17.70;10.03;;;;;;;;;;5082747;28;20200;-26
2022/12/14 03:07:34;;;;;;;13.30;8.33;;;;;;;;;;5099401;28;20294;-26
2022/12/14 03:10:03;;;;;;;12.50;7.43;;;;;;;;;;5094676;28;20531;-26
2022/12/14 03:12:30;;;;;;;10.23;6.83;;;;;;;;;;5085432;28;20227;-27
2022/12/14 03:14:59;;;;;;;8.03;5.40;;;;;;;;;;5088429;28;20554;-26
2022/12/14 03:17:30;;;;;;;13.17;8.40;;;;;;;;;;5089721;28;20215;-26
2022/12/14 03:20:00;;;;;;;11.93;7.60;;;;;;;;;;5089280;28;20572;-27
2022/12/14 03:22:29;;;;;;;11.60;7.50;;;;;;;;;;5071246;28;20236;-26
2022/12/14 03:24:59;;;;;;;12.70;8.07;;;;;;;;;;5081762;28;20659;-25
2022/12/14 03:27:30;;;;;;;15.60;9.73;;;;;;;;;;5081374;28;20200;-27
2022/12/14 03:29:59;;;;;;;12.23;7.57;;;;;;;;;;5079859;28;20221;-26
2022/12/14 03:32:30;;;;;;;13.07;7.40;;;;;;;;;;5083411;28;20312;-26
2022/12/14 03:35:00;;;;;;;14.83;9.27;;;;;;;;;;5094581;28;20208;-26
2022/12/14 03:37:30;;;;;;;12.70;8.57;;;;;;;;;;5086801;28;20208;-27
2022/12/14 03:39:58;;;;;;;11.53;6.30;;;;;;;;;;5097075;28;20216;-26
2022/12/14 03:42:26;;;;;;;15.97;9.13;;;;;;;;;;5078292;28;20231;-28
2022/12/14 03:44:58;;;;;;;13.27;8.40;;;;;;;;;;5084682;28;20208;-26
2022/12/14 03:47:36;;;;;;;15.97;8.93;;;;;;;;;;5092788;28;20207;-27
2022/12/14 03:50:05;;;;;;;10.67;6.87;;;;;;;;;;5083607;28;20601;-25
2022/12/14 03:52:35;;;;;;;13.67;8.10;;;;;;;;;;5095766;28;20231;-27
2022/12/14 03:55:07;;;;;;;11.27;7.87;;;;;;;;;;5096193;28;20524;-26
2022/12/14 03:57:43;;;;;;;13.00;8.40;;;;;;;;;;5076371;28;20209;-27
2022/12/14 04:00:12;;;;;;;11.27;7.87;;;;;;;;;;5100289;28;20235;-26
2022/12/14 04:02:43;;;;;;;18.30;11.20;;;;;;;;;;5114158;28;20203;-27
2022/12/14 04:05:13;;;;;;;17.87;10.00;;;;;;;;;;5086648;28;20207;-25
2022/12/14 04:07:43;;;;;;;11.57;6.77;;;;;;;;;;5099864;28;20206;-27
2022/12/14 04:21:22;;;;;;;13.00;7.67;;;;;;;;;;5034386;28;20232;-29
2022/12/14 04:26:44;;;;;;;15.90;11.57;;;;;;;;;;5031550;28;20671;-30
2022/12/14 04:32:08;;;;;;;13.23;8.93;;;;;;;;;;5028360;28;20233;-28
2022/12/14 04:34:40;;;;;;;16.30;10.30;;;;;;;;;;5030145;28;20289;-31
2022/12/14 04:37:12;;;;;;;14.23;8.50;;;;;;;;;;5043728;28;20206;-27
2022/12/14 04:39:47;;;;;;;14.57;9.87;;;;;;;;;;5054029;28;20206;-27
2022/12/14 04:42:17;;;;;;;16.87;10.60;;;;;;;;;;5028898;28;20238;-27
2022/12/14 04:44:48;;;;;;;14.50;8.30;;;;;;;;;;5033240;28;20241;-29
2022/12/14 04:47:21;;;;;;;14.43;9.67;;;;;;;;;;5033281;28;20234;-29
2022/12/14 04:49:55;;;;;;;15.67;9.97;;;;;;;;;;5025648;28;20248;-28
2022/12/14 04:55:13;;;;;;;11.37;8.10;;;;;;;;;;5033731;28;20210;-30
2022/12/14 04:57:47;;;;;;;13.87;7.00;;;;;;;;;;5023981;28;20206;-28
2022/12/14 05:00:16;;;;;;;14.17;8.33;;;;;;;;;;5033342;28;20230;-26
2022/12/14 05:02:59;;;;;;;14.83;9.30;;;;;;;;;;5014985;28;20218;-25
2022/12/14 05:08:25;;;;;;;12.67;7.73;;;;;;;;;;5043857;28;20213;-26
2022/12/14 05:11:02;;;;;;;19.90;9.77;;;;;;;;;;5025345;28;20326;-26
2022/12/14 05:13:38;;;;;;;7.50;5.00;;;;;;;;;;5042194;28;20210;-27
2022/12/14 05:16:09;;;;;;;15.20;9.00;;;;;;;;;;5040865;28;20659;-26
2022/12/14 05:18:40;;;;;;;11.57;7.87;;;;;;;;;;5029308;28;20221;-29
2022/12/14 05:24:03;;;;;;;15.90;8.73;;;;;;;;;;5046101;28;20289;-31
2022/12/14 05:26:35;;;;;;;15.80;7.73;;;;;;;;;;5028633;28;20246;-31
2022/12/14 05:29:05;;;;;;;14.33;9.13;;;;;;;;;;5043675;28;20286;-27
2022/12/14 05:31:33;;;;;;;13.87;8.77;;;;;;;;;;5043059;28;20230;-26
2022/12/14 05:34:01;;;;;;;4.73;2.43;;;;;;;;;;5031102;28;20204;-29
2022/12/14 05:36:32;;;;;;;15.10;8.13;;;;;;;;;;5031933;28;20212;-24
2022/12/14 05:39:08;;;;;;;15.07;9.67;;;;;;;;;;5032986;28;20298;-25
2022/12/14 05:41:36;;;;;;;15.57;10.10;;;;;;;;;;5027222;28;20219;-28
2022/12/14 05:44:04;;;;;;;12.97;8.93;;;;;;;;;;5032163;28;20210;-32
2022/12/14 05:46:33;;;;;;;16.30;8.93;;;;;;;;;;5050717;28;20202;-25
2022/12/14 05:49:04;;;;;;;13.63;9.27;;;;;;;;;;5053768;28;20210;-29
2022/12/14 05:51:36;;;;;;;16.17;9.60;;;;;;;;;;5033598;28;20233;-27
2022/12/14 05:54:05;;;;;;;13.77;8.73;;;;;;;;;;5039850;28;20212;-26
2022/12/14 05:56:33;;;;;;;18.50;9.77;;;;;;;;;;5033943;28;20223;-27
2022/12/14 05:59:01;;;;;;;16.10;9.93;;;;;;;;;;5023329;28;20218;-26
2022/12/14 06:01:35;;;;;;;18.30;10.40;;;;;;;;;;5033717;28;20242;-26
2022/12/14 06:04:06;;;;;;;17.47;9.57;;;;;;;;;;5032872;28;20214;-28
2022/12/14 06:06:36;;;;;;;13.60;9.10;;;;;;;;;;5019772;28;20199;-30
2022/12/14 06:09:07;;;;;;;13.07;8.93;;;;;;;;;;5039200;28;20318;-24
2022/12/14 06:11:38;;;;;;;12.20;7.37;;;;;;;;;;5033764;28;20226;-27
2022/12/14 06:14:06;;;;;;;15.73;8.67;;;;;;;;;;5021840;28;20256;-26
2022/12/14 06:16:35;;;;;;;16.00;9.43;;;;;;;;;;5032182;28;20268;-26
2022/12/14 06:19:08;;;;;;;18.47;10.97;;;;;;;;;;5033318;28;20276;-24
2022/12/14 06:21:40;;;;;;;11.33;7.70;;;;;;;;;;5029489;28;20218;-28
2022/12/14 06:24:11;;;;;;;16.80;10.37;;;;;;;;;;5036958;28;20194;-30
2022/12/14 06:26:42;;;;;;;8.77;6.57;;;;;;;;;;5029128;28;20250;-25
2022/12/14 06:29:14;;;;;;;20.30;10.17;;;;;;;;;;5041586;28;20209;-24
2022/12/14 06:31:52;;;;;;;18.40;10.00;;;;;;;;;;5039599;28;20254;-31
2022/12/14 06:34:31;;;;;;;18.97;11.57;;;;;;;;;;5029022;28;20214;-27
2022/12/14 06:37:00;;;;;;;15.23;10.67;;;;;;;;;;5024941;28;20206;-27
2022/12/14 06:39:31;;;;;;;15.63;10.13;;;;;;;;;;5032565;28;20209;-25
2022/12/14 06:41:59;;;;;;;13.93;9.00;;;;;;;;;;5023941;28;20222;-27
2022/12/14 06:44:29;;;;;;;17.10;10.00;;;;;;;;;;5030613;28;20559;-31
2022/12/14 06:46:57;;;;;;;16.10;9.73;;;;;;;;;;5029060;28;20234;-30
2022/12/14 06:49:26;;;;;;;15.87;9.27;;;;;;;;;;5032381;28;20230;-28
2022/12/14 06:52:12;;;;;;;16.97;10.20;;;;;;;;;;5032883;28;20230;-28
2022/12/14 06:54:42;;;;;;;12.47;7.40;;;;;;;;;;5031889;28;20202;-25
2022/12/14 06:57:11;;;;;;;14.97;9.53;;;;;;;;;;5023529;28;20211;-28
2022/12/14 06:59:39;;;;;;;14.73;7.93;;;;;;;;;;5031822;28;20207;-30
2022/12/14 07:02:09;;;;;;;15.07;8.83;;;;;;;;;;5047399;28;20218;-26
2022/12/14 07:04:45;;;;;;;17.47;10.33;;;;;;;;;;5037649;28;20224;-26
2022/12/14 07:12:21;;;;;;;20.17;11.07;;;;;;;;;;5039098;28;20273;-28
2022/12/14 07:14:49;;;;;;;22.60;12.70;;;;;;;;;;5056816;28;20209;-29
2022/12/14 07:17:17;;;;;;;15.57;10.80;;;;;;;;;;5055902;28;20206;-26
2022/12/14 07:22:16;;;;;;;20.57;14.60;;;;;;;;;;5048410;28;20234;-25
2022/12/14 07:24:48;;;;;;;16.30;9.30;;;;;;;;;;5054867;28;20233;-28
2022/12/14 07:27:24;;;;;;;20.53;12.00;;;;;;;;;;5047997;28;20205;-27
2022/12/14 07:29:54;;;;;;;10.40;7.43;;;;;;;;;;5056841;28;20275;-24
2022/12/14 07:32:24;;;;;;;16.90;9.77;;;;;;;;;;5072538;28;20229;-29
2022/12/14 07:34:52;;;;;;;15.23;8.87;;;;;;;;;;5062924;28;20206;-25
2022/12/14 07:37:28;;;;;;;20.93;13.03;;;;;;;;;;5050360;28;20202;-28
2022/12/14 07:39:57;;;;;;;14.87;10.07;;;;;;;;;;5069470;28;20201;-28
2022/12/14 07:42:26;;;;;;;19.87;9.63;;;;;;;;;;5055260;28;20226;-27
2022/12/14 07:44:55;;;;;;;20.17;11.20;;;;;;;;;;5054953;28;20209;-27
2022/12/14 07:55:14;;;;;;;15.13;7.67;;;;;;;;;;5045893;28;20269;-29
2022/12/14 07:57:45;;;;;;;19.70;11.30;;;;;;;;;;5025322;28;20202;-30
2022/12/14 08:00:20;;;;;;;18.27;10.63;;;;;;;;;;5050586;28;20194;-25
2022/12/14 08:02:56;;;;;;;21.57;12.23;;;;;;;;;;5055897;28;20212;-28
2022/12/14 08:05:26;;;;;;;22.67;14.67;;;;;;;;;;5021884;28;20211;-26
2022/12/14 08:08:00;;;;;;;3.97;3.43;;;;;;;;;;5035855;28;20232;-27
2022/12/14 08:10:30;;;;;;;17.40;10.40;;;;;;;;;;5044063;28;20209;-26
2022/12/14 08:13:02;;;;;;;21.00;11.60;;;;;;;;;;5037976;28;20252;-30
2022/12/14 08:15:39;;;;;;;19.13;11.33;;;;;;;;;;5039866;28;20259;-30
2022/12/14 08:18:08;;;;;;;20.80;12.93;;;;;;;;;;5055599;28;20289;-28
2022/12/14 08:20:39;;;;;;;21.90;11.67;;;;;;;;;;5046440;28;20251;-30
2022/12/14 08:23:11;;;;;;;20.53;12.10;;;;;;;;;;5036536;28;20210;-26
2022/12/14 08:25:39;;;;;;;21.70;12.00;;;;;;;;;;5025012;28;20214;-27
2022/12/14 08:28:07;;;;;;;22.53;12.47;;;;;;;;;;5025643;28;20214;-28
2022/12/14 08:30:39;;;;;;;21.93;11.83;;;;;;;;;;5052868;28;20226;-25
2022/12/14 08:33:09;;;;;;;23.33;12.53;;;;;;;;;;5055450;28;20228;-29
2022/12/14 08:35:40;;;;;;;20.30;12.33;;;;;;;;;;5035395;28;20215;-28
2022/12/14 08:38:09;;;;;;;22.67;12.47;;;;;;;;;;5025848;28;20231;-27
2022/12/14 08:43:35;;;;;;;24.07;13.23;;;;;;;;;;5052982;28;20222;-29
2022/12/14 08:46:14;;;;;;;19.47;11.83;;;;;;;;;;5045862;28;20210;-26
2022/12/14 08:48:45;;;;;;;21.93;12.60;;;;;;;;;;5049480;28;20205;-31
2022/12/14 08:59:23;;;;;;;23.07;13.97;;;;;;;;;;5058974;28;20249;-30
2022/12/14 09:01:54;;;;;;;19.57;8.73;;;;;;;;;;5073039;28;20217;-27
2022/12/14 09:04:24;;;;;;;23.87;13.33;;;;;;;;;;5060358;28;20214;-28
2022/12/14 09:06:55;;;;;;;23.00;14.00;;;;;;;;;;5063168;28;20212;-29
2022/12/14 09:09:30;;;;;;;19.00;12.07;;;;;;;;;;5054674;28;20289;-24
2022/12/14 09:12:05;;;;;;;7.33;4.87;;;;;;;;;;5042392;28;20256;-29
2022/12/14 09:14:34;;;;;;;18.30;11.57;;;;;;;;;;5050485;28;20207;-26
2022/12/14 09:17:10;;;;;;;21.83;13.27;;;;;;;;;;5057696;28;20289;-29
2022/12/14 09:19:42;;;;;;;21.63;12.30;;;;;;;;;;5047035;28;20209;-30
2022/12/14 09:22:14;;;;;;;21.20;12.60;;;;;;;;;;5059356;28;20234;-31
2022/12/14 09:24:42;;;;;;;9.13;5.20;;;;;;;;;;5058719;28;20216;-29
2022/12/14 09:27:10;;;;;;;20.37;11.17;;;;;;;;;;5052062;28;20271;-29
2022/12/14 09:29:39;;;;;;;19.10;11.17;;;;;;;;;;5051796;28;20218;-30
2022/12/14 09:32:09;;;;;;;27.77;14.33;;;;;;;;;;5048367;28;20242;-31
2022/12/14 09:34:40;;;;;;;49.70;24.50;;;;;;;;;;5049547;28;20306;-31
2022/12/14 09:37:14;;;;;;;48.63;24.23;;;;;;;;;;5053349;28;20214;-26
2022/12/14 09:39:44;;;;;;;23.43;14.27;;;;;;;;;;5042770;28;20230;-30
2022/12/14 09:42:21;;;;;;;25.23;14.43;;;;;;;;;;5043679;28;20281;-28
2022/12/14 09:44:59;;;;;;;19.63;13.37;;;;;;;;;;5058086;28;20216;-28
2022/12/14 09:47:40;;;;;;;21.60;13.57;;;;;;;;;;5055018;28;20190;-25
2022/12/14 09:50:17;;;;;;;23.30;13.87;;;;;;;;;;5048411;28;20221;-28
2022/12/14 09:53:01;;;;;;;22.87;13.33;;;;;;;;;;5037538;28;20335;-27
2022/12/14 09:55:33;;;;;;;28.63;16.27;;;;;;;;;;5060015;28;20301;-31
2022/12/14 09:58:07;;;;;;;26.20;15.60;;;;;;;;;;5053771;28;20210;-26
2022/12/14 10:00:43;;;;;;;25.23;14.97;;;;;;;;;;5058529;28;20244;-30
2022/12/14 10:03:26;;;;;;;30.93;16.30;;;;;;;;;;5050089;28;20205;-27
2022/12/14 10:06:22;;;;;;;25.73;14.53;;;;;;;;;;5046521;28;20201;-27
2022/12/14 10:11:52;;;;;;;24.37;15.23;;;;;;;;;;5042584;28;20225;-28
2022/12/14 10:14:24;;;;;;;21.37;12.43;;;;;;;;;;5043628;28;20217;-29
2022/12/14 10:16:57;;;;;;;21.00;11.50;;;;;;;;;;5058646;28;20279;-28
2022/12/14 10:22:01;;;;;;;22.73;13.40;;;;;;;;;;4997657;28;20264;-30
2022/12/14 10:24:36;;;;;;;12.30;8.03;;;;;;;;;;5001708;28;20227;-28
2022/12/14 10:27:14;;;;;;;20.27;12.80;;;;;;;;;;5000216;28;20208;-31
2022/12/14 10:29:48;;;;;;;22.17;12.63;;;;;;;;;;5011397;28;20203;-29
2022/12/14 10:32:20;;;;;;;22.63;13.57;;;;;;;;;;5010981;28;20227;-27
2022/12/14 10:34:52;;;;;;;26.00;13.87;;;;;;;;;;4985073;28;20231;-26
2022/12/14 10:37:26;;;;;;;23.67;13.80;;;;;;;;;;4998168;28;20218;-29
2022/12/14 10:40:11;;;;;;;28.50;15.77;;;;;;;;;;5012041;28;20297;-27
2022/12/14 10:42:45;;;;;;;28.47;13.43;;;;;;;;;;4989466;28;20212;-26
2022/12/14 10:45:20;;;;;;;47.67;19.90;;;;;;;;;;4988579;28;20215;-28
2022/12/14 10:47:52;;;;;;;29.00;16.57;;;;;;;;;;4973491;28;20234;-29
2022/12/14 10:50:25;;;;;;;22.83;13.57;;;;;;;;;;4988385;28;20214;-27
2022/12/14 10:53:02;;;;;;;22.97;13.63;;;;;;;;;;5000419;28;20250;-25
2022/12/14 10:55:33;;;;;;;24.83;14.57;;;;;;;;;;4999561;28;20212;-29
2022/12/14 10:58:07;;;;;;;25.07;14.20;;;;;;;;;;4997579;28;20203;-28
2022/12/14 11:00:43;;;;;;;22.53;13.23;;;;;;;;;;5014447;28;20231;-29
2022/12/14 11:03:20;;;;;;;20.07;12.37;;;;;;;;;;5008244;28;20206;-28
2022/12/14 11:06:08;;;;;;;22.50;13.83;;;;;;;;;;4995774;28;20219;-31
2022/12/14 11:08:50;;;;;;;20.20;12.97;;;;;;;;;;4981688;28;20208;-26
2022/12/14 11:11:19;;;;;;;24.20;13.77;;;;;;;;;;5009110;28;20230;-27
2022/12/14 11:14:07;;;;;;;23.67;12.10;;;;;;;;;;4997209;28;20228;-28
2022/12/14 11:16:36;;;;;;;22.60;13.07;;;;;;;;;;5014708;28;20211;-32
2022/12/14 11:19:06;;;;;;;20.97;13.73;;;;;;;;;;5015677;28;20203;-27
2022/12/14 11:21:42;;;;;;;26.83;15.50;;;;;;;;;;5000053;28;20246;-26
2022/12/14 11:24:23;;;;;;;24.70;15.13;;;;;;;;;;5005155;28;20737;-28
2022/12/14 11:26:53;;;;;;;24.07;13.67;;;;;;;;;;4989995;28;20212;-29
2022/12/14 11:29:31;;;;;;;24.63;14.00;;;;;;;;;;5005713;28;20203;-31
2022/12/14 11:32:00;;;;;;;25.13;14.07;;;;;;;;;;5012673;28;20226;-29
2022/12/14 11:34:31;;;;;;;25.33;15.43;;;;;;;;;;4989732;28;20239;-26
2022/12/14 11:37:12;;;;;;;25.63;14.63;;;;;;;;;;4996238;28;20212;-27
2022/12/14 11:39:43;;;;;;;24.60;14.50;;;;;;;;;;4995697;28;20310;-27
2022/12/14 11:42:17;;;;;;;25.17;14.07;;;;;;;;;;4996475;28;20216;-26
2022/12/14 11:44:55;;;;;;;24.23;15.17;;;;;;;;;;5005183;28;20211;-30
2022/12/14 11:47:25;;;;;;;23.53;15.00;;;;;;;;;;4999514;28;20215;-30
2022/12/14 11:49:54;;;;;;;26.17;16.20;;;;;;;;;;4995292;28;20263;-27
2022/12/14 11:52:32;;;;;;;25.23;15.97;;;;;;;;;;5004043;28;20266;-29
2022/12/14 11:55:14;;;;;;;27.30;15.40;;;;;;;;;;5014222;28;20238;-26
2022/12/14 11:57:50;;;;;;;27.40;15.57;;;;;;;;;;4995937;28;20211;-30
2022/12/14 12:00:25;;;;;;;23.70;13.60;;;;;;;;;;5003142;28;20389;-28
2022/12/14 12:02:58;;;;;;;21.63;13.87;;;;;;;;;;5015044;28;20203;-28
2022/12/14 12:05:29;;;;;;;29.53;16.27;;;;;;;;;;5007281;28;20201;-30
2022/12/14 12:08:02;;;;;;;28.10;16.13;;;;;;;;;;5011576;28;20203;-29
2022/12/14 12:10:41;;;;;;;25.93;15.00;;;;;;;;;;5012269;28;20231;-30
2022/12/14 12:13:19;;;;;;;26.13;14.90;;;;;;;;;;4993402;28;20239;-27
2022/12/14 12:15:55;;;;;;;26.70;15.00;;;;;;;;;;4982789;28;20207;-29
2022/12/14 12:18:31;;;;;;;26.57;16.27;;;;;;;;;;5014354;28;20271;-29
2022/12/14 12:21:03;;;;;;;28.03;17.27;;;;;;;;;;5002856;28;20239;-27
2022/12/14 12:23:34;;;;;;;29.80;17.10;;;;;;;;;;5006955;28;20286;-30
2022/12/14 12:26:08;;;;;;;28.37;16.37;;;;;;;;;;5307017;22;20217;-26
2022/12/14 12:28:37;;;;;;;30.40;16.57;;;;;;;;;;5060080;28;20206;-27
2022/12/14 12:31:08;;;;;;;28.07;16.53;;;;;;;;;;5089973;28;20234;-27
2022/12/14 12:33:38;;;;;;;27.80;16.17;;;;;;;;;;5070171;28;20333;-26
2022/12/14 12:36:05;;;;;;;21.40;12.87;;;;;;;;;;5059921;28;20205;-25
2022/12/14 12:38:41;;;;;;;24.17;14.60;;;;;;;;;;5087222;28;20207;-28
2022/12/14 12:41:13;;;;;;;26.23;15.43;;;;;;;;;;5074024;28;20391;-28
2022/12/14 12:43:42;;;;;;;24.10;14.97;;;;;;;;;;5055742;28;20227;-28
2022/12/14 12:46:13;;;;;;;23.60;15.33;;;;;;;;;;5083771;28;20292;-27
2022/12/14 12:48:44;;;;;;;24.47;14.10;;;;;;;;;;5088597;28;20208;-29
2022/12/14 12:51:13;;;;;;;28.37;17.20;;;;;;;;;;5074338;28;20484;-28
2022/12/14 12:53:42;;;;;;;30.70;15.87;;;;;;;;;;5071155;28;20224;-27
2022/12/14 12:56:13;;;;;;;25.83;14.37;;;;;;;;;;5065640;28;20202;-28
2022/12/14 12:58:41;;;;;;;28.83;15.57;;;;;;;;;;5064367;28;20320;-26
2022/12/14 13:01:15;;;;;;;26.83;15.83;;;;;;;;;;5081578;28;20225;-29
2022/12/14 13:03:44;;;;;;;36.07;18.87;;;;;;;;;;5064485;28;20201;-26
2022/12/14 13:06:14;;;;;;;30.53;17.03;;;;;;;;;;5066788;28;20202;-26
2022/12/14 13:08:43;;;;;;;30.77;17.40;;;;;;;;;;5079211;28;20205;-25
2022/12/14 13:11:15;;;;;;;27.00;15.67;;;;;;;;;;5060037;28;20222;-27
2022/12/14 13:13:44;;;;;;;29.93;16.47;;;;;;;;;;5062992;28;20217;-28
2022/12/14 13:16:14;;;;;;;26.10;14.40;;;;;;;;;;5086472;28;20204;-25
2022/12/14 13:18:44;;;;;;;28.13;15.40;;;;;;;;;;5087384;28;20205;-30
2022/12/14 13:21:17;;;;;;;24.43;15.43;;;;;;;;;;5068575;28;20366;-26
2022/12/14 13:23:44;;;;;;;23.83;13.40;;;;;;;;;;5067830;28;20284;-27
2022/12/14 13:26:19;;;;;;;31.30;16.70;;;;;;;;;;5073500;28;20290;-28
2022/12/14 13:28:52;;;;;;;25.37;14.73;;;;;;;;;;5059665;28;20208;-26
2022/12/14 13:31:28;;;;;;;27.23;15.70;;;;;;;;;;5084641;28;20744;-25
2022/12/14 13:34:13;;;;;;;31.70;17.20;;;;;;;;;;5089318;28;20231;-27
2022/12/14 13:36:50;;;;;;;27.60;17.10;;;;;;;;;;5064288;28;20192;-27
2022/12/14 13:39:33;;;;;;;25.17;15.57;;;;;;;;;;5068063;28;20224;-27
2022/12/14 13:42:04;;;;;;;32.47;15.90;;;;;;;;;;5062454;28;20225;-27
2022/12/14 13:44:43;;;;;;;31.70;15.23;;;;;;;;;;5060477;28;20208;-27
2022/12/14 13:47:14;;;;;;;27.43;17.10;;;;;;;;;;5066407;28;20208;-27
2022/12/14 13:49:41;;;;;;;27.87;15.77;;;;;;;;;;5065996;28;20272;-29
2022/12/14 13:52:20;;;;;;;27.40;17.07;;;;;;;;;;5055977;28;20324;-29
2022/12/14 13:54:47;;;;;;;34.37;17.77;;;;;;;;;;5064105;28;20201;-26
2022/12/14 13:57:22;;;;;;;27.50;15.70;;;;;;;;;;5059146;28;20510;-29
2022/12/14 13:59:50;;;;;;;32.20;17.77;;;;;;;;;;5066317;28;20292;-28
2022/12/14 14:02:36;;;;;;;37.60;19.03;;;;;;;;;;5066092;28;20236;-28
2022/12/14 14:05:22;;;;;;;31.17;17.43;;;;;;;;;;5063065;28;20228;-27
2022/12/14 14:07:52;;;;;;;35.03;18.93;;;;;;;;;;5053545;28;20204;-27
2022/12/14 14:10:30;;;;;;;32.00;18.70;;;;;;;;;;5073394;28;20201;-27
2022/12/14 14:12:59;;;;;;;29.87;16.73;;;;;;;;;;5060701;28;20412;-24
2022/12/14 14:15:34;;;;;;;29.97;17.93;;;;;;;;;;5072159;28;20205;-27
2022/12/14 14:18:14;;;;;;;31.13;18.07;;;;;;;;;;5066266;28;20308;-25
2022/12/14 14:20:42;;;;;;;33.03;19.07;;;;;;;;;;5062088;28;20769;-27
2022/12/14 14:23:29;;;;;;;30.40;17.20;;;;;;;;;;5053334;28;20224;-26
2022/12/14 14:26:12;;;;;;;33.00;18.17;;;;;;;;;;5058478;28;20224;-28
2022/12/14 14:28:41;;;;;;;33.77;18.57;;;;;;;;;;5057633;28;20423;-26
2022/12/14 14:31:08;;;;;;;32.47;17.40;;;;;;;;;;5077768;28;20686;-27
2022/12/14 14:33:40;;;;;;;33.17;18.60;;;;;;;;;;5086839;28;20317;-25
2022/12/14 14:36:08;;;;;;;34.70;17.97;;;;;;;;;;5059845;28;20217;-27
2022/12/14 14:38:37;;;;;;;29.60;16.03;;;;;;;;;;5073468;28;20291;-30
2022/12/14 14:41:10;;;;;;;34.37;17.53;;;;;;;;;;5059033;28;20301;-27
2022/12/14 14:43:39;;;;;;;32.43;17.77;;;;;;;;;;5066664;28;20617;-28
2022/12/14 14:46:09;;;;;;;29.97;15.43;;;;;;;;;;5065781;28;20549;-27
2022/12/14 14:48:40;;;;;;;29.77;16.30;;;;;;;;;;5065568;28;20205;-26
2022/12/14 14:51:15;;;;;;;28.30;15.47;;;;;;;;;;5062596;28;20228;-25
2022/12/14 14:53:43;;;;;;;26.43;15.40;;;;;;;;;;5065240;28;20613;-27
2022/12/14 14:56:28;;;;;;;22.27;12.80;;;;;;;;;;5061046;28;20193;-25
2022/12/14 14:59:24;;;;;;;26.60;15.67;;;;;;;;;;5060464;28;20201;-25
2022/12/14 15:01:55;;;;;;;25.60;14.70;;;;;;;;;;5071412;28;20240;-26
2022/12/14 15:04:23;;;;;;;26.83;15.57;;;;;;;;;;5075479;28;20654;-25
2022/12/14 15:06:51;;;;;;;23.23;15.77;;;;;;;;;;5064627;28;20213;-25
2022/12/14 15:09:20;;;;;;;27.97;17.30;;;;;;;;;;5082528;28;20198;-25
2022/12/14 15:11:50;;;;;;;25.77;13.10;;;;;;;;;;5067865;28;20599;-26
2022/12/14 15:14:36;;;;;;;28.50;16.43;;;;;;;;;;5066403;28;20701;-27
2022/12/14 15:17:15;;;;;;;27.43;15.73;;;;;;;;;;5064918;28;20240;-28
2022/12/14 15:19:47;;;;;;;27.13;13.80;;;;;;;;;;5064276;28;20443;-25
2022/12/14 15:22:17;;;;;;;26.13;13.90;;;;;;;;;;5055843;28;20221;-26
2022/12/14 15:24:46;;;;;;;25.10;13.90;;;;;;;;;;5061172;28;20209;-27
2022/12/14 15:27:20;;;;;;;28.77;16.30;;;;;;;;;;5058373;28;20210;-27
2022/12/14 15:29:48;;;;;;;30.70;17.70;;;;;;;;;;5075006;28;20200;-26
2022/12/14 15:32:17;;;;;;;28.90;16.50;;;;;;;;;;5061457;28;20230;-27
2022/12/14 15:34:49;;;;;;;27.47;16.57;;;;;;;;;;5070608;28;20456;-27
2022/12/14 15:37:24;;;;;;;28.40;15.23;;;;;;;;;;5062874;28;20209;-26
2022/12/14 15:40:00;;;;;;;24.10;13.63;;;;;;;;;;5077930;28;20207;-26
2022/12/14 15:42:27;;;;;;;26.00;14.33;;;;;;;;;;5064900;28;20845;-28
2022/12/14 15:44:55;;;;;;;24.27;12.70;;;;;;;;;;5081185;28;20205;-28
2022/12/14 15:47:25;;;;;;;18.63;10.97;;;;;;;;;;5074234;28;20299;-28